Time;durP1;ratioP1;P1;durP2;ratioP2;P2;SDS_P1;SDS_P2;PMS_P1;PMS_P2;Temp;Humidity;BMP_temperature;BMP_pressure;BME280_temperature;BME280_humidity;BME280_pressure;Samples;Min_cycle;Max_cycle;Signal;HPM_P1;HPM_P2
2021/12/18 00:00:20;;;;;;;1.08;0.68;;;18.50;68.40;;;;;;10377048;28;20033;-62
2021/12/18 00:05:21;;;;;;;0.80;0.50;;;18.50;68.50;;;;;;10372629;28;20441;-62
2021/12/18 00:10:23;;;;;;;3.67;0.60;;;18.50;68.30;;;;;;10370857;28;20034;-61
2021/12/18 00:15:25;;;;;;;2.80;1.13;;;18.50;68.50;;;;;;10372328;28;20088;-62
2021/12/18 00:20:27;;;;;;;4.13;0.65;;;18.50;68.30;;;;;;10372364;28;20034;-62
2021/12/18 00:25:28;;;;;;;1.90;0.70;;;18.50;68.20;;;;;;10372178;28;20030;-63
2021/12/18 00:30:29;;;;;;;1.00;0.50;;;18.50;68.30;;;;;;10371561;28;20042;-61
2021/12/18 00:35:29;;;;;;;1.15;0.50;;;18.60;68.20;;;;;;10371574;28;20041;-61
2021/12/18 00:40:44;;;;;;;1.85;0.60;;;18.50;68.20;;;;;;10371466;28;20069;-61
2021/12/18 00:45:44;;;;;;;1.08;0.50;;;18.50;68.10;;;;;;10371458;28;20032;-61
2021/12/18 00:50:46;;;;;;;1.42;0.50;;;18.60;68.10;;;;;;10371652;28;20112;-62
2021/12/18 00:55:48;;;;;;;1.02;0.60;;;18.50;68.10;;;;;;10370405;28;20414;-63
2021/12/18 01:00:52;;;;;;;6.05;0.55;;;18.60;68.00;;;;;;10370778;28;20053;-61
2021/12/18 01:05:52;;;;;;;0.80;0.50;;;18.50;68.10;;;;;;10370888;28;20034;-62
2021/12/18 01:16:19;;;;;;;1.23;0.50;;;18.60;68.00;;;;;;10371344;28;20046;-62
2021/12/18 01:26:39;;;;;;;1.03;0.60;;;18.50;68.10;;;;;;10370666;28;20054;-61
2021/12/18 01:31:39;;;;;;;0.90;0.47;;;18.50;68.00;;;;;;10370137;28;20512;-61
2021/12/18 01:36:40;;;;;;;1.45;0.60;;;18.50;67.90;;;;;;10370333;28;20045;-62
2021/12/18 01:42:11;;;;;;;1.00;0.50;;;18.60;67.90;;;;;;10370286;28;20029;-61
2021/12/18 01:51:15;;;;;;;0.60;0.40;;;18.60;67.90;;;;;;10369988;28;20392;-61
2021/12/18 01:52:32;;;;;;;1.00;0.52;;;18.60;67.80;;;;;;10369776;28;20049;-62
2021/12/18 01:57:33;;;;;;;0.73;0.40;;;18.50;67.90;;;;;;10368997;28;20034;-62
2021/12/18 02:02:34;;;;;;;1.42;0.50;;;18.60;67.80;;;;;;10373120;28;20037;-61
2021/12/18 02:07:34;;;;;;;1.95;0.60;;;18.60;67.80;;;;;;10371638;28;20033;-62
2021/12/18 02:23:19;;;;;;;0.40;0.40;;;18.50;67.60;;;;;;10376811;28;20034;-62
2021/12/18 02:28:25;;;;;;;1.58;0.57;;;18.60;67.60;;;;;;10376469;28;20389;-63
2021/12/18 02:33:27;;;;;;;0.68;0.40;;;18.50;67.60;;;;;;10375612;28;20042;-61
2021/12/18 02:39:00;;;;;;;1.20;0.30;;;18.50;67.90;;;;;;10374296;28;20038;-61
2021/12/18 02:44:06;;;;;;;1.33;0.60;;;18.40;68.00;;;;;;10374458;28;20500;-62
2021/12/18 02:49:14;;;;;;;0.50;0.30;;;18.50;67.80;;;;;;10375445;28;20029;-62
2021/12/18 02:54:15;;;;;;;0.57;0.30;;;18.50;67.60;;;;;;10375059;28;20057;-62
2021/12/18 02:59:17;;;;;;;0.88;0.47;;;18.50;67.60;;;;;;10375693;28;20052;-62
2021/12/18 03:04:23;;;;;;;0.55;0.40;;;18.50;67.60;;;;;;10376933;28;20423;-61
2021/12/18 03:20:53;;;;;;;1.50;0.50;;;18.50;67.50;;;;;;10374737;28;20479;-61
2021/12/18 03:25:31;;;;;;;0.52;0.35;;;18.60;67.50;;;;;;10374043;28;20395;-62
2021/12/18 03:30:34;;;;;;;0.80;0.43;;;18.60;67.40;;;;;;10373560;28;20050;-61
2021/12/18 03:35:34;;;;;;;0.88;0.40;;;18.50;67.40;;;;;;10373738;28;20056;-61
2021/12/18 03:40:35;;;;;;;0.93;0.30;;;18.60;67.30;;;;;;10374055;28;20034;-61
2021/12/18 03:45:36;;;;;;;1.05;0.50;;;18.60;67.30;;;;;;10371902;28;20034;-62
2021/12/18 03:50:37;;;;;;;0.70;0.40;;;18.50;67.40;;;;;;10373057;28;20049;-61
2021/12/18 03:55:37;;;;;;;1.30;0.50;;;18.40;67.60;;;;;;10372859;28;20381;-62
2021/12/18 04:00:38;;;;;;;0.63;0.40;;;18.50;67.50;;;;;;10372944;28;20044;-61
2021/12/18 04:05:39;;;;;;;1.33;0.73;;;18.50;67.30;;;;;;10372434;28;20041;-61
2021/12/18 04:10:41;;;;;;;0.82;0.50;;;18.50;67.40;;;;;;10372335;28;20038;-61
2021/12/18 04:15:42;;;;;;;0.73;0.50;;;18.50;67.50;;;;;;10371168;28;20040;-62
2021/12/18 04:20:42;;;;;;;0.90;0.30;;;18.50;67.30;;;;;;10372357;28;20205;-62
2021/12/18 04:25:43;;;;;;;0.50;0.30;;;18.50;67.40;;;;;;10372572;28;20481;-62
2021/12/18 04:30:44;;;;;;;0.32;0.30;;;18.50;67.20;;;;;;10371107;28;20403;-61
2021/12/18 04:35:45;;;;;;;0.55;0.30;;;18.60;67.20;;;;;;10371855;28;20041;-61
2021/12/18 04:40:45;;;;;;;0.90;0.40;;;18.50;67.30;;;;;;10370714;28;20041;-62
2021/12/18 04:45:46;;;;;;;1.35;0.50;;;18.50;67.60;;;;;;10370287;28;20060;-61
2021/12/18 04:50:47;;;;;;;0.43;0.35;;;18.40;67.60;;;;;;10371695;28;20041;-61
2021/12/18 04:55:48;;;;;;;0.70;0.40;;;18.50;67.50;;;;;;10371244;28;20045;-62
2021/12/18 05:00:49;;;;;;;0.68;0.30;;;18.50;67.30;;;;;;10363536;28;20030;-62
2021/12/18 05:05:49;;;;;;;0.60;0.38;;;18.50;67.40;;;;;;10345072;28;20104;-62
2021/12/18 05:10:50;;;;;;;1.08;0.43;;;18.50;67.10;;;;;;10332432;28;20095;-64
2021/12/18 05:15:51;;;;;;;0.43;0.30;;;18.50;67.20;;;;;;10330278;28;20799;-65
2021/12/18 05:20:51;;;;;;;0.85;0.40;;;18.50;67.20;;;;;;10331486;28;20046;-62
2021/12/18 05:25:52;;;;;;;0.40;0.20;;;18.60;67.00;;;;;;10328307;28;20038;-62
2021/12/18 05:30:53;;;;;;;0.60;0.30;;;18.50;67.10;;;;;;10326388;28;20073;-62
2021/12/18 05:35:54;;;;;;;0.20;0.20;;;18.50;67.00;;;;;;10331749;28;20046;-62
2021/12/18 05:40:54;;;;;;;0.85;0.40;;;18.60;67.00;;;;;;10331717;28;20034;-61
2021/12/18 05:45:55;;;;;;;0.55;0.32;;;18.50;67.20;;;;;;10347227;28;20036;-61
2021/12/18 05:50:55;;;;;;;0.68;0.40;;;18.50;67.30;;;;;;10351476;28;20042;-64
2021/12/18 05:55:56;;;;;;;1.67;0.40;;;18.50;67.40;;;;;;10334722;28;20054;-61
2021/12/18 06:00:57;;;;;;;1.65;0.40;;;18.50;67.60;;;;;;10374112;28;20041;-66
2021/12/18 06:05:57;;;;;;;3.28;0.40;;;18.50;67.50;;;;;;10375772;28;20033;-64
2021/12/18 06:11:05;;;;;;;1.75;0.40;;;18.50;67.50;;;;;;10377096;28;20121;-66
2021/12/18 06:16:06;;;;;;;1.33;0.70;;;18.50;67.50;;;;;;10376414;28;20030;-60
2021/12/18 06:21:09;;;;;;;2.45;0.80;;;18.50;67.70;;;;;;10376956;28;20033;-62
2021/12/18 06:26:10;;;;;;;3.53;0.47;;;18.60;68.00;;;;;;10375360;28;20037;-61
2021/12/18 06:31:11;;;;;;;5.10;1.02;;;18.60;68.90;;;;;;10376471;28;20439;-61
2021/12/18 06:36:12;;;;;;;2.70;0.40;;;18.70;68.50;;;;;;10376206;28;20038;-61
2021/12/18 06:41:12;;;;;;;7.55;0.77;;;18.60;68.70;;;;;;10375937;28;20411;-62
2021/12/18 06:46:13;;;;;;;12.10;1.15;;;18.50;69.50;;;;;;10375878;28;20042;-62
2021/12/18 06:51:18;;;;;;;11.15;1.65;;;18.40;70.20;;;;;;10375293;28;20026;-62
2021/12/18 06:56:19;;;;;;;6.25;1.05;;;18.60;69.80;;;;;;10372363;28;20038;-64
2021/12/18 07:01:20;;;;;;;3.10;0.60;;;18.60;69.80;;;;;;10376660;28;20486;-62
2021/12/18 07:06:21;;;;;;;5.28;1.02;;;18.50;69.80;;;;;;10374277;28;20038;-65
2021/12/18 07:11:21;;;;;;;7.85;1.20;;;18.20;70.10;;;;;;10359671;28;20025;-67
2021/12/18 07:16:22;;;;;;;8.40;1.50;;;18.10;70.40;;;;;;10374464;28;20022;-67
2021/12/18 07:21:23;;;;;;;10.00;1.23;;;18.00;70.70;;;;;;10373377;28;20128;-65
2021/12/18 07:26:23;;;;;;;22.45;1.88;;;18.00;70.60;;;;;;10374493;28;20477;-64
2021/12/18 07:31:24;;;;;;;19.05;1.70;;;18.00;70.70;;;;;;10371847;28;20042;-63
2021/12/18 07:36:25;;;;;;;11.15;1.85;;;18.00;71.00;;;;;;10372434;28;20388;-62
2021/12/18 07:41:26;;;;;;;18.90;2.03;;;17.90;70.60;;;;;;10372379;28;20037;-62
2021/12/18 07:46:26;;;;;;;16.30;1.90;;;18.00;70.70;;;;;;10366311;28;20030;-62
2021/12/18 07:51:27;;;;;;;13.38;1.65;;;18.00;70.40;;;;;;10365301;28;20034;-63
2021/12/18 07:56:28;;;;;;;12.45;2.10;;;17.90;70.60;;;;;;10369213;28;20396;-62
2021/12/18 08:01:28;;;;;;;14.90;2.20;;;18.00;70.70;;;;;;10376896;28;20029;-63
2021/12/18 08:06:29;;;;;;;22.67;2.88;;;17.90;70.80;;;;;;10371418;28;20120;-63
2021/12/18 08:11:30;;;;;;;16.48;2.47;;;18.00;70.80;;;;;;10372449;28;20109;-62
2021/12/18 08:16:31;;;;;;;19.15;2.05;;;18.00;70.50;;;;;;10372549;28;20034;-61
2021/12/18 08:21:31;;;;;;;11.82;2.25;;;18.10;70.30;;;;;;10371763;28;20030;-61
2021/12/18 08:26:32;;;;;;;14.55;1.77;;;18.10;70.40;;;;;;10372515;28;20033;-61
2021/12/18 08:31:33;;;;;;;9.98;1.63;;;18.00;70.40;;;;;;10371548;28;20049;-65
2021/12/18 08:36:33;;;;;;;11.70;1.23;;;18.20;70.10;;;;;;10370429;28;20120;-61
2021/12/18 08:41:37;;;;;;;10.88;1.55;;;18.20;69.50;;;;;;10371201;28;20054;-62
2021/12/18 08:46:39;;;;;;;9.13;1.10;;;18.20;69.30;;;;;;10371305;28;20034;-61
2021/12/18 08:51:40;;;;;;;7.35;1.00;;;18.20;69.20;;;;;;10369660;28;20038;-62
2021/12/18 08:56:41;;;;;;;6.78;1.15;;;18.30;69.30;;;;;;10371305;28;20034;-61
2021/12/18 09:01:41;;;;;;;6.47;1.17;;;18.30;68.80;;;;;;10373627;28;20045;-63
2021/12/18 09:06:42;;;;;;;9.82;2.05;;;18.30;68.70;;;;;;10371247;28;20121;-61
2021/12/18 09:11:43;;;;;;;7.40;1.20;;;18.30;68.50;;;;;;10369851;28;20100;-63
2021/12/18 09:16:44;;;;;;;4.63;0.98;;;18.30;68.30;;;;;;10371366;28;20033;-60
2021/12/18 09:21:44;;;;;;;5.88;1.02;;;18.30;68.30;;;;;;10377093;28;20034;-64
2021/12/18 09:26:45;;;;;;;14.15;1.35;;;18.40;67.90;;;;;;10378606;28;20059;-62
2021/12/18 09:31:46;;;;;;;10.45;1.40;;;18.40;67.90;;;;;;10377240;28;20042;-62
2021/12/18 09:36:47;;;;;;;11.27;1.20;;;18.40;67.90;;;;;;10377870;28;20038;-61
2021/12/18 09:41:49;;;;;;;5.70;0.90;;;18.50;67.90;;;;;;10377272;28;20129;-61
2021/12/18 09:46:50;;;;;;;9.02;1.52;;;18.40;69.40;;;;;;10377477;28;20472;-62
2021/12/18 09:51:52;;;;;;;8.57;1.50;;;18.50;69.20;;;;;;10375429;28;20030;-65
2021/12/18 09:56:53;;;;;;;7.65;1.25;;;18.40;69.20;;;;;;10375973;28;20036;-63
2021/12/18 10:01:54;;;;;;;13.48;1.65;;;18.30;69.10;;;;;;10378524;28;20026;-68
2021/12/18 10:06:57;;;;;;;5.32;1.05;;;18.20;69.20;;;;;;10377162;28;20523;-65
2021/12/18 10:12:14;;;;;;;6.72;1.40;;;18.10;69.30;;;;;;10377309;28;20041;-65
2021/12/18 10:17:38;;;;;;;10.55;1.42;;;18.00;69.40;;;;;;10375887;28;20506;-64
2021/12/18 10:22:49;;;;;;;8.55;1.00;;;18.10;69.30;;;;;;10364948;28;20432;-65
2021/12/18 10:28:20;;;;;;;6.13;1.02;;;18.20;69.10;;;;;;10374360;28;20037;-64
2021/12/18 10:33:28;;;;;;;5.28;0.95;;;18.30;68.60;;;;;;10374010;28;20038;-65
2021/12/18 10:38:51;;;;;;;5.13;1.30;;;18.30;68.50;;;;;;10374303;28;20026;-64
2021/12/18 10:44:09;;;;;;;3.65;0.55;;;18.20;68.60;;;;;;10373585;28;20033;-65
2021/12/18 10:49:18;;;;;;;5.28;0.73;;;18.20;68.80;;;;;;10366454;28;20046;-65
2021/12/18 10:54:25;;;;;;;3.40;0.50;;;18.30;68.60;;;;;;10372601;28;20033;-67
2021/12/18 10:59:31;;;;;;;3.97;0.60;;;18.30;68.60;;;;;;10375657;28;20468;-65
2021/12/18 11:04:38;;;;;;;5.82;0.60;;;18.30;68.50;;;;;;10377537;28;20030;-62
2021/12/18 11:09:45;;;;;;;8.82;1.40;;;18.30;68.70;;;;;;10374085;28;20400;-63
2021/12/18 11:14:47;;;;;;;16.83;1.30;;;18.40;68.70;;;;;;10370581;28;20167;-64
2021/12/18 11:19:49;;;;;;;14.43;2.60;;;18.40;68.90;;;;;;10374143;28;20041;-61
2021/12/18 11:25:06;;;;;;;10.52;2.55;;;18.50;70.90;;;;;;10373987;28;20041;-61
2021/12/18 11:30:11;;;;;;;16.10;2.40;;;18.50;70.60;;;;;;10372761;28;20030;-63
2021/12/18 11:35:20;;;;;;;15.55;3.20;;;18.60;70.60;;;;;;10372667;28;20042;-65
2021/12/18 11:40:26;;;;;;;9.52;2.22;;;18.50;70.80;;;;;;10373844;28;20153;-61
2021/12/18 11:45:34;;;;;;;20.35;3.40;;;18.50;70.40;;;;;;10372075;28;20034;-66
2021/12/18 11:50:37;;;;;;;10.40;3.28;;;18.60;71.60;;;;;;10373461;28;20447;-67
2021/12/18 11:55:50;;;;;;;9.88;3.05;;;18.60;72.10;;;;;;10387847;28;20735;-64
2021/12/18 12:01:02;;;;;;;13.65;2.55;;;18.40;72.00;;;;;;10377530;28;20041;-63
2021/12/18 12:06:35;;;;;;;15.27;2.53;;;18.30;72.00;;;;;;10372799;28;20048;-65
2021/12/18 12:12:04;;;;;;;12.57;2.40;;;18.50;70.80;;;;;;10372673;28;20036;-66
2021/12/18 12:17:27;;;;;;;15.25;2.75;;;18.50;71.30;;;;;;10371425;28;20114;-64
2021/12/18 12:22:42;;;;;;;12.23;1.55;;;18.40;71.10;;;;;;10371335;28;20041;-66
2021/12/18 12:27:59;;;;;;;16.13;2.42;;;18.40;71.10;;;;;;10368650;28;20038;-65
2021/12/18 12:33:07;;;;;;;12.00;2.08;;;18.20;70.80;;;;;;10371796;28;20093;-62
2021/12/18 12:38:23;;;;;;;15.48;2.28;;;18.10;70.60;;;;;;10364091;28;20483;-65
2021/12/18 12:43:30;;;;;;;10.93;2.15;;;18.00;70.80;;;;;;10370695;28;20029;-65
2021/12/18 12:49:06;;;;;;;12.68;1.50;;;18.00;71.00;;;;;;10365311;28;20512;-64
2021/12/18 12:54:07;;;;;;;6.30;1.15;;;18.00;71.10;;;;;;10363999;28;20176;-65
2021/12/18 12:59:25;;;;;;;9.45;1.55;;;17.90;71.20;;;;;;10367999;28;20463;-66
2021/12/18 13:04:26;;;;;;;6.07;1.77;;;17.90;71.10;;;;;;10367164;28;20042;-65
2021/12/18 13:09:27;;;;;;;6.63;1.77;;;17.90;71.00;;;;;;10369781;28;20030;-66
2021/12/18 13:14:44;;;;;;;4.47;1.30;;;18.00;70.80;;;;;;10369877;28;20057;-66
2021/12/18 13:20:05;;;;;;;7.78;1.13;;;18.00;70.50;;;;;;10359854;28;20041;-65
2021/12/18 13:25:13;;;;;;;4.10;0.90;;;18.10;70.40;;;;;;10370793;28;20045;-66
2021/12/18 13:30:19;;;;;;;5.32;1.00;;;18.10;70.00;;;;;;10369346;28;20038;-65
2021/12/18 13:35:22;;;;;;;4.20;1.10;;;18.10;70.00;;;;;;10370773;28;20040;-65
2021/12/18 13:40:23;;;;;;;2.72;0.95;;;18.20;69.80;;;;;;10370542;28;20041;-66
2021/12/18 13:45:24;;;;;;;3.53;1.33;;;18.30;69.50;;;;;;10370441;28;20044;-65
2021/12/18 13:50:25;;;;;;;3.90;1.00;;;18.20;69.50;;;;;;10370673;28;20038;-66
2021/12/18 13:55:42;;;;;;;4.18;0.60;;;18.20;69.70;;;;;;10369090;28;20065;-66
2021/12/18 14:00:58;;;;;;;6.70;1.00;;;18.20;69.50;;;;;;10374586;28;20084;-66
2021/12/18 14:06:11;;;;;;;7.38;0.90;;;18.30;69.40;;;;;;10377369;28;20073;-67
2021/12/18 14:11:15;;;;;;;5.20;1.45;;;18.20;69.40;;;;;;10376224;28;20040;-65
2021/12/18 14:16:19;;;;;;;4.50;1.00;;;18.30;69.20;;;;;;10376922;28;20045;-66
2021/12/18 14:21:37;;;;;;;3.20;1.20;;;18.30;69.10;;;;;;10376566;28;20527;-65
2021/12/18 14:26:39;;;;;;;1.70;0.40;;;18.30;69.00;;;;;;10376925;28;20042;-65
2021/12/18 14:31:50;;;;;;;3.28;0.70;;;18.40;68.70;;;;;;10376232;28;20046;-64
2021/12/18 14:36:53;;;;;;;1.73;0.52;;;18.40;68.70;;;;;;10376288;28;20045;-66
2021/12/18 14:42:16;;;;;;;1.08;0.40;;;18.40;68.50;;;;;;10376230;28;20038;-64
2021/12/18 14:47:43;;;;;;;2.72;0.45;;;18.40;68.40;;;;;;10374931;28;20041;-64
2021/12/18 14:53:03;;;;;;;2.70;0.70;;;18.40;68.50;;;;;;10367424;28;20054;-64
2021/12/18 14:58:38;;;;;;;3.72;0.63;;;18.30;68.80;;;;;;10375765;28;20040;-64
2021/12/18 15:03:41;;;;;;;2.42;0.50;;;18.30;68.70;;;;;;10379087;28;20488;-65
2021/12/18 15:09:02;;;;;;;1.48;0.60;;;18.30;68.60;;;;;;10374172;28;20040;-64
2021/12/18 15:14:09;;;;;;;2.22;0.52;;;18.30;68.60;;;;;;10374180;28;20049;-64
2021/12/18 15:19:14;;;;;;;4.43;0.70;;;18.30;68.70;;;;;;10374367;28;20041;-65
2021/12/18 15:24:17;;;;;;;5.65;0.63;;;18.40;68.50;;;;;;10374318;28;20418;-66
2021/12/18 15:29:23;;;;;;;2.38;0.57;;;18.40;68.50;;;;;;10374566;28;20037;-65
2021/12/18 15:34:24;;;;;;;0.50;0.38;;;18.40;68.60;;;;;;10374243;28;20065;-63
2021/12/18 15:39:27;;;;;;;1.60;0.57;;;18.40;68.60;;;;;;10374584;28;20077;-64
2021/12/18 15:44:28;;;;;;;1.75;0.60;;;18.40;68.20;;;;;;10372838;28;20041;-65
2021/12/18 15:49:29;;;;;;;2.63;0.80;;;18.50;68.00;;;;;;10373735;28;20041;-65
2021/12/18 15:54:30;;;;;;;1.55;0.70;;;18.40;68.80;;;;;;10373286;28;20408;-65
2021/12/18 15:59:30;;;;;;;2.58;0.68;;;18.30;68.30;;;;;;10374935;28;20044;-66
2021/12/18 16:04:31;;;;;;;1.13;0.63;;;18.40;68.30;;;;;;10374949;28;20030;-66
2021/12/18 16:09:32;;;;;;;1.90;0.50;;;18.40;68.30;;;;;;10372973;28;20038;-65
2021/12/18 16:14:33;;;;;;;1.25;0.40;;;18.30;68.30;;;;;;10372806;28;20113;-65
2021/12/18 16:19:34;;;;;;;1.58;0.68;;;18.40;68.20;;;;;;10373067;28;20506;-64
2021/12/18 16:24:36;;;;;;;1.20;0.50;;;18.30;68.20;;;;;;10370919;28;20125;-66
2021/12/18 16:29:36;;;;;;;1.10;0.40;;;18.30;68.90;;;;;;10371990;28;20042;-66
2021/12/18 16:34:38;;;;;;;1.40;0.50;;;18.30;68.30;;;;;;10371673;28;20045;-66
2021/12/18 16:39:39;;;;;;;1.13;0.50;;;18.40;68.20;;;;;;10372119;28;20118;-65
2021/12/18 16:44:39;;;;;;;1.13;0.30;;;18.30;68.20;;;;;;10371350;28;20129;-65
2021/12/18 16:49:45;;;;;;;1.88;0.43;;;18.30;68.30;;;;;;10371764;28;20021;-64
2021/12/18 16:54:45;;;;;;;0.30;0.30;;;18.40;68.10;;;;;;10371361;28;20108;-61
2021/12/18 16:59:48;;;;;;;1.70;0.50;;;18.50;67.90;;;;;;10374919;28;20021;-61
2021/12/18 17:04:50;;;;;;;1.27;0.40;;;18.50;67.70;;;;;;10372253;28;20079;-62
2021/12/18 17:09:51;;;;;;;0.88;0.40;;;18.40;67.80;;;;;;10371266;28;20109;-61
2021/12/18 17:14:52;;;;;;;2.13;0.60;;;18.30;68.00;;;;;;10371224;28;20133;-61
2021/12/18 17:19:52;;;;;;;1.65;0.35;;;18.40;67.90;;;;;;10371176;28;20045;-63
2021/12/18 17:24:53;;;;;;;0.55;0.40;;;18.40;67.80;;;;;;10370847;28;20439;-62
2021/12/18 17:29:54;;;;;;;1.05;0.40;;;18.40;67.90;;;;;;10370911;28;20108;-64
2021/12/18 17:34:55;;;;;;;2.08;0.50;;;18.40;67.80;;;;;;10370492;28;20050;-61
2021/12/18 17:39:56;;;;;;;1.90;1.25;;;18.40;67.70;;;;;;10376640;28;20432;-62
2021/12/18 17:44:57;;;;;;;1.92;0.98;;;18.40;67.80;;;;;;10378710;28;20037;-65
2021/12/18 17:49:58;;;;;;;0.45;0.32;;;18.50;67.70;;;;;;10393658;28;20025;-63
2021/12/18 17:54:59;;;;;;;0.85;0.50;;;18.40;67.70;;;;;;10378043;28;20041;-61
2021/12/18 18:00:02;;;;;;;2.40;0.40;;;18.40;67.80;;;;;;10382442;28;20033;-61
2021/12/18 18:05:05;;;;;;;1.48;0.40;;;18.50;67.60;;;;;;10377747;28;20516;-62
2021/12/18 18:10:08;;;;;;;0.55;0.28;;;18.40;67.50;;;;;;10377579;28;20042;-63
2021/12/18 18:15:09;;;;;;;1.35;0.40;;;18.40;67.70;;;;;;10377422;28;20093;-63
2021/12/18 18:20:12;;;;;;;1.65;0.30;;;18.50;67.50;;;;;;10377023;28;20045;-64
2021/12/18 18:25:12;;;;;;;0.43;0.20;;;18.40;67.40;;;;;;10377009;28;20077;-62
2021/12/18 18:30:13;;;;;;;0.63;0.32;;;18.40;67.60;;;;;;10376600;28;20029;-61
2021/12/18 18:35:15;;;;;;;1.13;0.30;;;18.40;67.40;;;;;;10376463;28;20049;-62
2021/12/18 18:40:16;;;;;;;1.20;0.60;;;18.50;67.40;;;;;;10376174;28;20042;-64
2021/12/18 18:45:20;;;;;;;0.77;0.40;;;18.40;67.50;;;;;;10376139;28;20041;-64
2021/12/18 18:50:23;;;;;;;0.50;0.20;;;18.40;67.30;;;;;;10374869;28;20116;-61
2021/12/18 18:55:23;;;;;;;1.48;0.30;;;18.40;67.40;;;;;;10375986;28;20100;-63
2021/12/18 19:00:27;;;;;;;1.42;0.60;;;18.40;67.50;;;;;;10379765;28;20108;-61
2021/12/18 19:05:27;;;;;;;1.10;0.40;;;18.40;67.30;;;;;;10375362;28;20041;-62
2021/12/18 19:10:28;;;;;;;1.55;0.60;;;18.40;67.30;;;;;;10374034;28;20033;-61
2021/12/18 19:15:29;;;;;;;1.65;0.40;;;18.40;67.40;;;;;;10374039;28;20388;-63
2021/12/18 19:20:30;;;;;;;0.70;0.30;;;18.40;67.30;;;;;;10374771;28;20100;-63
2021/12/18 19:25:31;;;;;;;0.82;0.35;;;18.40;67.30;;;;;;10372598;28;20426;-61
2021/12/18 19:30:32;;;;;;;0.68;0.40;;;18.30;67.50;;;;;;10373718;28;20049;-62
2021/12/18 19:35:35;;;;;;;2.97;0.43;;;18.30;67.20;;;;;;10373626;28;20045;-63
2021/12/18 19:40:36;;;;;;;3.42;0.73;;;18.40;67.10;;;;;;10371269;28;20245;-63
2021/12/18 19:45:37;;;;;;;4.05;0.55;;;18.50;66.90;;;;;;10371245;28;20042;-63
2021/12/18 19:50:39;;;;;;;3.03;0.50;;;18.50;67.00;;;;;;10356025;28;20034;-62
2021/12/18 19:55:40;;;;;;;3.38;0.40;;;18.40;67.30;;;;;;10355190;28;20040;-63
2021/12/18 20:00:41;;;;;;;2.67;0.80;;;18.40;67.70;;;;;;10344226;28;20030;-63
2021/12/18 20:05:41;;;;;;;1.48;0.50;;;18.30;68.00;;;;;;10358867;28;20034;-60
2021/12/18 20:10:43;;;;;;;2.08;0.75;;;18.20;68.30;;;;;;10355993;28;20037;-61
2021/12/18 20:15:44;;;;;;;1.75;0.70;;;18.20;68.40;;;;;;10338533;28;20133;-61
2021/12/18 20:20:45;;;;;;;7.47;1.77;;;18.30;68.20;;;;;;10347863;28;21177;-62
2021/12/18 20:25:46;;;;;;;1.27;0.52;;;18.30;68.20;;;;;;10375184;28;20554;-61
2021/12/18 20:30:49;;;;;;;2.25;1.05;;;18.30;68.10;;;;;;10369092;28;20054;-61
2021/12/18 20:35:55;;;;;;;2.78;0.82;;;18.30;68.20;;;;;;10370687;28;20037;-63
2021/12/18 20:41:06;;;;;;;1.98;0.77;;;18.30;69.00;;;;;;10371127;28;20073;-63
2021/12/18 20:46:09;;;;;;;2.75;0.80;;;18.40;68.20;;;;;;10369591;28;20133;-61
2021/12/18 20:51:11;;;;;;;1.48;0.68;;;18.30;68.20;;;;;;10367481;28;20037;-60
2021/12/18 20:56:13;;;;;;;2.38;0.77;;;18.30;68.40;;;;;;10368604;28;20412;-61
2021/12/18 21:01:14;;;;;;;1.50;0.68;;;18.30;68.30;;;;;;10369553;28;20045;-62
2021/12/18 21:06:17;;;;;;;1.23;0.63;;;18.30;68.30;;;;;;10369079;28;20026;-61
2021/12/18 21:11:18;;;;;;;2.75;0.60;;;18.30;68.40;;;;;;10366888;28;20045;-60
2021/12/18 21:16:20;;;;;;;2.10;0.73;;;18.30;68.30;;;;;;10376264;28;20114;-63
2021/12/18 21:21:22;;;;;;;1.17;0.60;;;18.40;67.90;;;;;;10374664;28;20101;-60
2021/12/18 21:26:23;;;;;;;3.08;0.93;;;18.40;67.80;;;;;;10378768;28;20088;-60
2021/12/18 21:31:25;;;;;;;1.88;0.60;;;18.40;68.00;;;;;;10378828;28;20427;-62
2021/12/18 21:36:42;;;;;;;1.20;0.60;;;18.40;68.00;;;;;;10377615;28;20494;-61
2021/12/18 21:41:49;;;;;;;2.25;0.57;;;18.40;68.00;;;;;;10378688;28;20041;-61
2021/12/18 21:46:51;;;;;;;1.48;0.68;;;18.40;67.90;;;;;;10378621;28;20052;-61
2021/12/18 21:51:52;;;;;;;0.75;0.43;;;18.40;67.60;;;;;;10377845;28;20431;-63
2021/12/18 21:56:52;;;;;;;1.83;1.10;;;18.40;67.70;;;;;;10378434;28;20112;-61
2021/12/18 22:01:53;;;;;;;1.40;0.50;;;18.40;67.80;;;;;;10382140;28;20101;-64
2021/12/18 22:06:54;;;;;;;2.25;0.60;;;18.40;67.80;;;;;;10377827;28;20030;-61
2021/12/18 22:11:55;;;;;;;1.08;0.45;;;18.40;67.50;;;;;;10377339;28;20038;-61
2021/12/18 22:16:58;;;;;;;0.80;0.50;;;18.40;67.50;;;;;;10377450;28;20038;-64
2021/12/18 22:22:05;;;;;;;1.10;0.50;;;18.40;67.50;;;;;;10377396;28;20041;-61
2021/12/18 22:27:06;;;;;;;2.10;0.60;;;18.40;67.50;;;;;;10377170;28;20030;-64
2021/12/18 22:32:07;;;;;;;1.80;0.50;;;18.40;67.50;;;;;;10376452;28;20062;-61
2021/12/18 22:37:07;;;;;;;1.00;0.50;;;18.40;67.50;;;;;;10376930;28;20045;-63
2021/12/18 22:42:08;;;;;;;1.25;0.50;;;18.50;67.40;;;;;;10376371;28;20029;-60
2021/12/18 22:47:09;;;;;;;0.57;0.52;;;18.40;67.40;;;;;;10376472;28;20128;-62
2021/12/18 22:52:10;;;;;;;1.30;0.57;;;18.40;67.40;;;;;;10374841;28;20034;-61
2021/12/18 22:57:11;;;;;;;1.92;0.50;;;18.40;67.40;;;;;;10375684;28;20046;-60
2021/12/18 23:02:12;;;;;;;0.85;0.40;;;18.40;67.50;;;;;;10380735;28;20116;-63
2021/12/18 23:07:12;;;;;;;1.08;0.45;;;18.50;67.20;;;;;;10373792;28;20048;-62
2021/12/18 23:12:17;;;;;;;0.60;0.43;;;18.40;67.30;;;;;;10375198;28;20052;-62
2021/12/18 23:17:33;;;;;;;0.60;0.38;;;18.40;67.30;;;;;;10375122;28;20041;-62
2021/12/18 23:22:38;;;;;;;0.80;0.43;;;18.50;67.20;;;;;;10374498;28;20038;-61
2021/12/18 23:27:39;;;;;;;2.08;0.52;;;18.40;67.30;;;;;;10374756;28;20396;-61
2021/12/18 23:32:41;;;;;;;1.23;0.60;;;18.50;67.30;;;;;;10374144;28;20065;-63
2021/12/18 23:37:46;;;;;;;1.10;0.63;;;18.50;67.20;;;;;;10373483;28;20033;-60
2021/12/18 23:42:54;;;;;;;1.90;0.70;;;18.40;67.30;;;;;;10374102;28;20030;-64
2021/12/18 23:47:55;;;;;;;1.00;0.40;;;18.40;67.40;;;;;;10374290;28;20034;-61
2021/12/18 23:52:56;;;;;;;2.10;0.65;;;18.40;67.60;;;;;;10373742;28;20042;-62
2021/12/18 23:57:56;;;;;;;0.60;0.50;;;18.40;67.30;;;;;;10373685;28;20100;-64
